Home   Weather   Netherlands   Groningen   Past weeks
Flag for Netherlands

Past Weather in Groningen, Netherlands — Yesterday and Last 2 Weeks

Currently: 81 °F. Warm. (Weather station: Groningen Eelde Airport, Netherlands). See more current weather

Past Weather in Groningen — Graph

°F

Groningen Temperature Yesterday

Maximum temperature yesterday: 88 °F (at 3:25 pm)
Minimum temperature yesterday: 57 °F (at 4:25 am)
Average temperature yesterday: 74 °F

High & Low Weather Summary for the Past Weeks

 TemperatureHumidityPressure
High88 °F (Aug 12, 2:55 pm)100% (Jul 31, 2:25 pm)30.42 "Hg (Jul 31, 2:25 pm)
Low45 °F (Aug 6, 4:25 am)25% (Aug 12, 3:55 pm)29.86 "Hg (Aug 4, 5:55 am)
Average67 °F71%30.12 "Hg
* Reported Jul 30 10:25 am — Aug 14 10:25 am, Groningen. Weather by CustomWeather, © 2022

Note: Actual official high and low records may vary slightly from our data, if they occured in-between our weather recording intervals... More about our weather records

Groningen Weather History for the Previous 24 Hours

Scroll right to see more
 ConditionsComfort  
Time TempWeatherWind HumidityBarometerVisibility
10:25 am
Sun, Aug 14
77 °FWarm.8 mph57%29.86 "HgN/A
9:55 am77 °FWarm.8 mph57%29.86 "HgN/A
9:25 am75 °FMild.8 mph61%29.86 "HgN/A
8:55 am72 °FMild.8 mph69%29.86 "HgN/A
8:25 am72 °FMild.7 mph69%29.86 "HgN/A
7:55 am70 °FMild.7 mph73%29.86 "HgN/A
7:25 am68 °FMild.2 mph73%29.86 "HgN/A
6:55 am64 °FMild.6 mph83%29.86 "HgN/A
6:25 am66 °FMild.5 mph78%29.89 "HgN/A
5:55 am63 °FMild.5 mph88%29.89 "HgN/A
5:25 am64 °FMild.7 mph83%29.89 "HgN/A
4:55 am63 °FMild.6 mph88%29.89 "HgN/A
4:25 am64 °FMild.3 mph83%29.92 "HgN/A
3:55 am64 °FMild.5 mph83%29.92 "HgN/A
3:25 am64 °FMild.5 mph83%29.92 "HgN/A
2:55 am64 °FMild.7 mph83%29.92 "HgN/A
1:25 am68 °FMild.5 mph73%29.95 "HgN/A
12:55 am68 °FMild.5 mph73%29.95 "HgN/A
12:25 am70 °FMild.5 mph69%29.95 "HgN/A
11:55 pm
Sat, Aug 13
70 °FMild.6 mph64%29.95 "HgN/A
11:25 pm70 °FClear.7 mph64%29.95 "HgN/A
10:55 pm72 °FClear.8 mph61%29.95 "HgN/A
10:25 pm73 °FClear.7 mph57%29.95 "HgN/A
9:55 pm75 °FClear.7 mph54%29.95 "HgN/A
9:25 pm73 °FMild.8 mph61%29.95 "HgN/A
8:55 pm79 °FClear.10 mph48%29.95 "HgN/A
8:25 pm81 °FClear.8 mph45%29.95 "HgN/A
7:55 pm82 °FPleasantly warm.8 mph40%29.95 "HgN/A
7:25 pm82 °FClear.8 mph40%29.95 "HgN/A
6:55 pm82 °FClear.9 mph37%29.95 "HgN/A
6:25 pm86 °FClear.8 mph31%29.98 "HgN/A
5:55 pm88 °FClear.8 mph29%29.98 "HgN/A
5:25 pm88 °FPleasantly warm.6 mph27%29.98 "HgN/A
4:55 pm88 °FClear.7 mph29%30.01 "HgN/A
4:25 pm88 °FClear.10 mph27%30.01 "HgN/A
3:55 pm86 °FClear.9 mph27%30.01 "HgN/A
3:25 pm88 °FClear.7 mph27%30.01 "HgN/A
2:25 pm86 °FPleasantly warm.10 mph27%30.04 "HgN/A
1:55 pm86 °FPleasantly warm.10 mph27%30.04 "HgN/A
12:55 pm84 °FPleasantly warm.10 mph29%30.07 "HgN/A
12:25 pm84 °FPleasantly warm.9 mph31%30.07 "HgN/A
11:55 am84 °FPleasantly warm.8 mph31%30.07 "HgN/A
Weather by CustomWeather, © 2022

See weather overview